Geervliet — PCLI — position and weather

sailwx.info

Track history (hours):
 
Tides and Currents Weather Stations Pressure Air Temp Water Temp Dewpoint Dewpoint Depression Visibility Wind Speed Wind Dir Waves Ship Positions

Geervliet

Last reported at 2018-Feb-21 23:40 UTC. Time now 2018-Feb-24 00:40 UTC.
Position N 49°46' W 003°26'.

Length 86 m; draft 4.9 m.

Type: Cargo ship. MMSI: 246803000.

Date/timePositionNaut miles runAvg speedWind from/ knotsBaromVisibWave heightAir tempDewpointWater temp
2018-Feb-21 23:40N 49°46' W 003°26'2 9.6
2018-Feb-21 23:25N 49°47' W 003°23'4 9.3
2018-Feb-21 23:01N 49°49' W 003°18'5 8.9
2018-Feb-21 22:29N 49°51' W 003°11'5 9.0
2018-Feb-21 21:59N 49°53' W 003°05'4 9.1
2018-Feb-21 21:30N 49°56' W 002°59'5 9.3
2018-Feb-21 21:00N 49°57' W 002°52'5 9.7
2018-Feb-21 20:28N 49°59' W 002°45'510.2
2018-Feb-21 20:00N 50°00' W 002°38'2412.1
2018-Feb-21 18:02N 50°07' W 002°02'213.5
2018-Feb-21 17:54N 50°08' W 001°60'513.7
2018-Feb-21 17:30N 50°09' W 001°52'713.8
2018-Feb-21 17:00N 50°12' W 001°41'713.5
2018-Feb-21 16:30N 50°14' W 001°31'713.1
2018-Feb-21 16:00N 50°15' W 001°21'37 9.7
2018-Feb-21 12:11N 50°26' W 000°26'1 8.1
2018-Feb-21 12:00N 50°27' W 000°24'4 8.2
2018-Feb-21 11:30N 50°28' W 000°18'4 8.6
2018-Feb-21 11:01N 50°29' W 000°11'5 9.2
2018-Feb-21 10:30N 50°31' W 000°04'5 9.7
2018-Feb-21 10:00N 50°32' E 000°03'510.4
2018-Feb-21 09:30N 50°34' E 000°11'510.8
2018-Feb-21 09:00N 50°35' E 000°19'611.6
2018-Feb-21 08:30N 50°37' E 000°28'611.8
2018-Feb-21 08:00N 50°40' E 000°36'612.0
2018-Feb-21 07:30N 50°43' E 000°44'612.0
2018-Feb-21 07:00N 50°46' E 000°51'611.8
2018-Feb-21 06:30N 50°50' E 000°59'611.3
2018-Feb-21 05:56N 50°54' E 001°07'1210.2
2018-Feb-21 04:46N 51°01' E 001°22'2 9.0
2018-Feb-21 04:30N 51°03' E 001°25'4 8.9
2018-Feb-21 04:00N 51°06' E 001°30'4 8.7
2018-Feb-21 03:30N 51°08' E 001°35'4 8.8
2018-Feb-21 03:00N 51°11' E 001°41'5 9.1
2018-Feb-21 02:30N 51°14' E 001°46'5 9.9
2018-Feb-21 02:00N 51°18' E 001°51'510.6
2018-Feb-21 01:30N 51°23' E 001°55'611.5
2018-Feb-21 01:00N 51°27' E 002°01'612.4
2018-Feb-21 00:30N 51°32' E 002°08'612.6
2018-Feb-21 00:00N 51°36' E 002°15'612.8
2018-Feb-20 23:30N 51°41' E 002°21'4611.0
2018-Feb-20 19:16N 52°03' E 003°28'310.5
2018-Feb-20 19:00N 52°03' E 003°33'510.2
2018-Feb-20 18:29N 52°03' E 003°41'510.1
2018-Feb-20 18:00N 52°02' E 003°49'4 8.7
2018-Feb-20 17:30N 52°02' E 003°56'510.3
2018-Feb-20 17:00N 51°59' E 004°03'5 9.3
2018-Feb-20 16:30N 51°57' E 004°10'4 7.9
2018-Feb-20 16:00N 51°55' E 004°15'4 8.6
2018-Feb-20 15:30N 51°54' E 004°22'4 7.1
2018-Feb-20 15:00N 51°54' E 004°27'0 0.0
2018-Feb-20 14:30N 51°54' E 004°27'0 0.0
2018-Feb-20 14:00N 51°54' E 004°27'0 0.0
2018-Feb-20 13:30N 51°54' E 004°27'0 0.0
2018-Feb-20 13:00N 51°54' E 004°27'0 0.0
2018-Feb-20 12:30N 51°54' E 004°27'0 0.0
2018-Feb-20 12:00N 51°54' E 004°27'0 0.0
2018-Feb-20 11:30N 51°54' E 004°27'0 0.0
2018-Feb-20 11:00N 51°54' E 004°27'0 0.0
2018-Feb-20 10:30N 51°54' E 004°27'0 0.0
2018-Feb-20 10:00N 51°54' E 004°27'0 0.0
2018-Feb-20 09:30N 51°54' E 004°27'0 0.0
2018-Feb-20 09:00N 51°54' E 004°27'0 0.0
2018-Feb-20 08:30N 51°54' E 004°27'0 0.1
2018-Feb-20 08:00N 51°54' E 004°27'1 1.1
2018-Feb-20 07:30N 51°54' E 004°26'1 1.4
2018-Feb-20 06:58N 51°54' E 004°27'0 0.0
2018-Feb-20 06:28N 51°54' E 004°27'0 0.0
2018-Feb-20 05:58N 51°54' E 004°27'0 0.0
2018-Feb-20 05:28N 51°54' E 004°27'0 0.0
2018-Feb-20 04:58N 51°54' E 004°27'0 0.0
2018-Feb-20 04:28N 51°54' E 004°27'0 0.0
2018-Feb-20 03:58N 51°54' E 004°27'0 0.0
2018-Feb-20 03:28N 51°54' E 004°27'0 0.0
2018-Feb-20 02:58N 51°54' E 004°27'0 0.0
2018-Feb-20 02:28N 51°54' E 004°27'0 0.0
2018-Feb-20 01:58N 51°54' E 004°27'0 0.0
2018-Feb-20 01:28N 51°54' E 004°27'0 0.0
2018-Feb-20 00:58N 51°54' E 004°27'0 0.0
2018-Feb-20 00:28N 51°54' E 004°27'0 0.0
2018-Feb-19 23:58N 51°54' E 004°27'0 0.0
2018-Feb-19 23:28N 51°54' E 004°27'0 0.0
2018-Feb-19 22:58N 51°54' E 004°27'0 0.0
2018-Feb-19 22:28N 51°54' E 004°27'0 0.0
2018-Feb-19 21:58N 51°54' E 004°27'0 0.0
2018-Feb-19 21:28N 51°54' E 004°27'0 0.0
2018-Feb-19 20:58N 51°54' E 004°27'0 0.0
2018-Feb-19 20:28N 51°54' E 004°27'0 0.0
2018-Feb-19 19:58N 51°54' E 004°27'0 0.0
2018-Feb-19 19:28N 51°54' E 004°27'0 0.0
2018-Feb-19 18:58N 51°54' E 004°27'0 0.0
2018-Feb-19 18:28N 51°54' E 004°27'0 0.0
2018-Feb-19 17:58N 51°54' E 004°27'0 0.0
2018-Feb-19 17:28N 51°54' E 004°27'0 0.0
2018-Feb-19 16:58N 51°54' E 004°27'0 0.0
2018-Feb-19 16:28N 51°54' E 004°27'0 0.0
2018-Feb-19 15:58N 51°54' E 004°27'0 0.0
2018-Feb-19 15:28N 51°54' E 004°27'0 0.0
2018-Feb-19 14:58N 51°54' E 004°27'0 0.0
2018-Feb-19 14:28N 51°54' E 004°27'0 0.0
2018-Feb-19 13:58N 51°54' E 004°27'0 0.0
2018-Feb-19 13:28N 51°54' E 004°27'0 0.0
2018-Feb-19 12:58N 51°54' E 004°27'0 0.0
2018-Feb-19 12:28N 51°54' E 004°27'0 0.0
2018-Feb-19 11:58N 51°54' E 004°27'0 0.0
2018-Feb-19 11:28N 51°54' E 004°27'0 0.0
2018-Feb-19 10:58N 51°54' E 004°27'0 0.0
2018-Feb-19 10:25N 51°54' E 004°27'0 0.0
2018-Feb-19 09:55N 51°54' E 004°27'0 0.0
2018-Feb-19 09:28N 51°54' E 004°27'0 0.0
2018-Feb-19 08:55N 51°54' E 004°27'0 0.0
2018-Feb-19 08:28N 51°54' E 004°27'0 0.0
2018-Feb-19 07:58N 51°54' E 004°27'0 0.0
2018-Feb-19 07:28N 51°54' E 004°27'0 0.0
2018-Feb-19 06:58N 51°54' E 004°27'0 0.0
2018-Feb-19 06:28N 51°54' E 004°27'0 0.0
2018-Feb-19 05:58N 51°54' E 004°27'0 0.0
2018-Feb-19 05:28N 51°54' E 004°27'0 0.0
2018-Feb-19 04:58N 51°54' E 004°27'0 0.0
2018-Feb-19 04:28N 51°54' E 004°27'0 0.0
2018-Feb-19 03:58N 51°54' E 004°27'0 0.0
2018-Feb-19 03:28N 51°54' E 004°27'0 0.0
2018-Feb-19 02:58N 51°54' E 004°27'0 0.0
2018-Feb-19 02:28N 51°54' E 004°27'0 0.0
2018-Feb-19 01:58N 51°54' E 004°27'0 0.0
2018-Feb-19 01:28N 51°54' E 004°27'0 0.0
2018-Feb-19 00:58N 51°54' E 004°27'0 0.0
2018-Feb-19 00:28N 51°54' E 004°27'0 0.0
2018-Feb-18 23:58N 51°54' E 004°27'0 0.0
2018-Feb-18 23:28N 51°54' E 004°27'0 0.0
2018-Feb-18 22:58N 51°54' E 004°27'0 0.0
2018-Feb-18 22:28N 51°54' E 004°27'0 0.0
2018-Feb-18 21:58N 51°54' E 004°27'0 0.0
2018-Feb-18 21:28N 51°54' E 004°27'0 0.0
2018-Feb-18 20:58N 51°54' E 004°27'0 0.0
2018-Feb-18 20:28N 51°54' E 004°27'0 0.0
2018-Feb-18 19:58N 51°54' E 004°27'0 0.0
2018-Feb-18 19:28N 51°54' E 004°27'0 0.0
2018-Feb-18 18:58N 51°54' E 004°27'0 0.0
2018-Feb-18 18:28N 51°54' E 004°27'0 0.0
2018-Feb-18 17:58N 51°54' E 004°27'0 0.0
2018-Feb-18 17:28N 51°54' E 004°27'0 0.0
2018-Feb-18 16:58N 51°54' E 004°27'0 0.0
2018-Feb-18 16:28N 51°54' E 004°27'0 0.0
2018-Feb-18 15:58N 51°54' E 004°27'0 0.0
2018-Feb-18 15:28N 51°54' E 004°27'0 0.0
2018-Feb-18 14:52N 51°54' E 004°27'0 0.0
2018-Feb-18 14:28N 51°54' E 004°27'0 0.0
2018-Feb-18 13:58N 51°54' E 004°27'0 0.0
2018-Feb-18 13:28N 51°54' E 004°27'0 0.0
2018-Feb-18 12:58N 51°54' E 004°27'0 0.0
2018-Feb-18 12:28N 51°54' E 004°27'0 0.0
2018-Feb-18 11:58N 51°54' E 004°27'0 0.0
2018-Feb-18 11:28N 51°54' E 004°27'0 0.0
2018-Feb-18 10:58N 51°54' E 004°27'0 0.0
2018-Feb-18 10:28N 51°54' E 004°27'0 0.0
2018-Feb-18 09:58N 51°54' E 004°27'0 0.0
2018-Feb-18 09:28N 51°54' E 004°27'0 0.0
2018-Feb-18 08:58N 51°54' E 004°27'0 0.0
2018-Feb-18 08:28N 51°54' E 004°27'0 0.0
2018-Feb-18 07:58N 51°54' E 004°27'0 0.0
2018-Feb-18 07:28N 51°54' E 004°27'0 0.0
2018-Feb-18 06:58N 51°54' E 004°27'0 0.0
2018-Feb-18 06:28N 51°54' E 004°27'0 0.0
2018-Feb-18 05:58N 51°54' E 004°27'0 0.0
2018-Feb-18 05:28N 51°54' E 004°27'0 0.0
2018-Feb-18 04:58N 51°54' E 004°27'0 0.0
2018-Feb-18 04:28N 51°54' E 004°27'0 0.0
2018-Feb-18 03:58N 51°54' E 004°27'0 0.0
2018-Feb-18 03:28N 51°54' E 004°27'0 0.0
2018-Feb-18 02:58N 51°54' E 004°27'0 0.0
2018-Feb-18 02:28N 51°54' E 004°27'0 0.0
2018-Feb-18 01:58N 51°54' E 004°27'0 0.0
2018-Feb-18 01:28N 51°54' E 004°27'0 0.0
2018-Feb-18 00:58N 51°54' E 004°27'0 0.0
2018-Feb-18 00:28N 51°54' E 004°27'0 0.0
2018-Feb-17 23:58N 51°54' E 004°27'0 0.0
2018-Feb-17 23:28N 51°54' E 004°27'0 0.0
2018-Feb-17 22:58N 51°54' E 004°27'0 0.0
2018-Feb-17 22:28N 51°54' E 004°27'0 0.0
2018-Feb-17 21:58N 51°54' E 004°27'0 0.0
2018-Feb-17 21:28N 51°54' E 004°27'0 0.0
2018-Feb-17 20:58N 51°54' E 004°27'0 0.0
2018-Feb-17 20:28N 51°54' E 004°27'0 0.0
2018-Feb-17 19:58N 51°54' E 004°27'0 0.0
2018-Feb-17 19:28N 51°54' E 004°27'0 0.0
2018-Feb-17 18:58N 51°54' E 004°27'0 0.0
2018-Feb-17 18:28N 51°54' E 004°27'0 0.0
2018-Feb-17 17:58N 51°54' E 004°27'0 0.0
2018-Feb-17 17:28N 51°54' E 004°27'0 0.0
2018-Feb-17 16:58N 51°54' E 004°27'0 0.0
2018-Feb-17 16:28N 51°54' E 004°27'0 0.0
2018-Feb-17 15:58N 51°54' E 004°27'0 0.0
2018-Feb-17 15:28N 51°54' E 004°27'0 0.0
2018-Feb-17 14:58N 51°54' E 004°27'0 0.0
2018-Feb-17 14:28N 51°54' E 004°27'0 0.0
2018-Feb-17 13:58N 51°54' E 004°27'0 0.0
2018-Feb-17 13:28N 51°54' E 004°27'0 0.0
2018-Feb-17 12:58N 51°54' E 004°27'0 0.0
2018-Feb-17 12:28N 51°54' E 004°27'0 0.0
2018-Feb-17 11:58N 51°54' E 004°27'0 0.0
2018-Feb-17 11:28N 51°54' E 004°27'0 0.0
2018-Feb-17 10:58N 51°54' E 004°27'0 0.0
2018-Feb-17 10:28N 51°54' E 004°27'0 0.0
2018-Feb-17 09:58N 51°54' E 004°27'0 0.0
2018-Feb-17 09:28N 51°54' E 004°27'0 0.0
2018-Feb-17 08:58N 51°54' E 004°27'0 0.0
2018-Feb-17 08:28N 51°54' E 004°27'0 0.0
2018-Feb-17 07:58N 51°54' E 004°27'0 0.0
2018-Feb-17 07:28N 51°54' E 004°27'0 0.0
2018-Feb-17 06:58N 51°54' E 004°27'0 0.0
2018-Feb-17 06:28N 51°54' E 004°27'0 0.0
2018-Feb-17 05:58N 51°54' E 004°27'0 0.0
2018-Feb-17 05:28N 51°54' E 004°27'0 0.0
2018-Feb-17 04:58N 51°54' E 004°27'0 0.0
2018-Feb-17 04:28N 51°54' E 004°27'0 0.0
2018-Feb-17 03:58N 51°54' E 004°27'0 0.0
2018-Feb-17 03:28N 51°54' E 004°27'0 0.0
2018-Feb-17 02:58N 51°54' E 004°27'0 0.0
2018-Feb-17 02:28N 51°54' E 004°27'0 0.0
2018-Feb-17 01:58N 51°54' E 004°27'0 0.0
2018-Feb-17 01:28N 51°54' E 004°27'0 0.0
2018-Feb-17 00:58N 51°54' E 004°27'0 0.0
2018-Feb-17 00:28N 51°54' E 004°27'0 0.0
2018-Feb-16 23:58N 51°54' E 004°27'0 0.0
2018-Feb-16 23:28N 51°54' E 004°27'0 0.0
2018-Feb-16 22:58N 51°54' E 004°27'0 0.0
2018-Feb-16 22:28N 51°54' E 004°27'0 0.0
2018-Feb-16 21:58N 51°54' E 004°27'0 0.0
2018-Feb-16 21:28N 51°54' E 004°27'0 0.0
2018-Feb-16 20:58N 51°54' E 004°27'0 0.0
2018-Feb-16 20:28N 51°54' E 004°27'0 0.0
2018-Feb-16 19:58N 51°54' E 004°27'0 0.0
2018-Feb-16 19:28N 51°54' E 004°27'0 0.2
2018-Feb-16 19:00N 51°54' E 004°27'4 8.4
2018-Feb-16 18:31N 51°54' E 004°21'4 8.4
2018-Feb-16 18:00N 51°55' E 004°14'4 8.7
2018-Feb-16 17:30N 51°58' E 004°09'5 9.6
2018-Feb-16 17:00N 51°60' E 004°01'611.4
2018-Feb-16 16:30N 51°60' E 003°52'4 8.7
2018-Feb-16 16:00N 52°03' E 003°47'3 6.6
2018-Feb-16 15:30N 52°06' E 003°46'3 6.2
2018-Feb-16 15:00N 52°09' E 003°47'3 6.1
2018-Feb-16 14:31N 52°12' E 003°47'3 5.7
2018-Feb-16 14:00N 52°15' E 003°47'3 5.9
2018-Feb-16 13:30N 52°18' E 003°48'4 8.9
2018-Feb-16 13:00N 52°22' E 003°49'510.4
2018-Feb-16 12:30N 52°27' E 003°50'710.7
2018-Feb-16 11:50N 52°35' E 003°52'3210.4
2018-Feb-16 08:47N 53°04' E 004°13'3 9.7
2018-Feb-16 08:30N 53°06' E 004°16'5 9.5
2018-Feb-16 07:59N 53°09' E 004°22'4 9.1
2018-Feb-16 07:30N 53°13' E 004°26'5 9.1
2018-Feb-16 06:58N 53°18' E 004°29'4 8.9
2018-Feb-16 06:29N 53°22' E 004°31'4 8.6
2018-Feb-16 05:59N 53°26' E 004°33'4 8.3
2018-Feb-16 05:29N 53°30' E 004°35'4 8.1
2018-Feb-16 05:00N 53°33' E 004°38'4 8.1
2018-Feb-16 04:30N 53°37' E 004°40'4 8.9
2018-Feb-16 04:00N 53°41' E 004°43'5 9.3
2018-Feb-16 03:30N 53°45' E 004°46'113 7.7
2018-Feb-15 12:45N 55°23' E 006°24'2 5.2
2018-Feb-15 12:21N 55°25' E 006°26'6 5.0
2018-Feb-15 11:11N 55°30' E 006°32'1 4.9
2018-Feb-15 11:00N 55°31' E 006°33'173 5.8
2018-Feb-14 05:01N 57°41' E 010°00'6 9.2
2018-Feb-14 04:21N 57°43' E 010°11'3 9.6
2018-Feb-14 04:00N 57°44' E 010°17'5 9.3
2018-Feb-14 03:30N 57°46' E 010°25'5 9.1
2018-Feb-14 03:00N 57°47' E 010°33'4 8.7
2018-Feb-14 02:30N 57°47' E 010°41'4 8.7
2018-Feb-14 02:00N 57°44' E 010°47'611.3
2018-Feb-14 01:30N 57°38' E 010°46'611.2
2018-Feb-14 01:00N 57°33' E 010°44'510.8
2018-Feb-14 00:30N 57°27' E 010°42'4 9.0
2018-Feb-14 00:00N 57°25' E 010°35'2 2.7
2018-Feb-13 23:22N 57°26' E 010°33'0 0.2
2018-Feb-13 22:48N 57°26' E 010°33'1 2.7
2018-Feb-13 22:29N 57°26' E 010°34'4 8.0
2018-Feb-13 22:00N 57°26' E 010°41'510.0
2018-Feb-13 21:31N 57°27' E 010°50'510.2
2018-Feb-13 21:00N 57°30' E 010°58'510.6
2018-Feb-13 20:30N 57°31' E 011°08'510.7
2018-Feb-13 20:00N 57°32' E 011°17'510.6
2018-Feb-13 19:31N 57°34' E 011°27'510.3
2018-Feb-13 19:00N 57°36' E 011°36'5 9.5
2018-Feb-13 18:30N 57°39' E 011°43'4 8.5
2018-Feb-13 18:01N 57°41' E 011°50'1 1.2
2018-Feb-13 17:29N 57°42' E 011°49'0 0.0
2018-Feb-13 16:59N 57°42' E 011°49'0 0.0
2018-Feb-13 16:29N 57°42' E 011°49'0 0.0
2018-Feb-13 15:59N 57°42' E 011°49'0 0.0
2018-Feb-13 15:29N 57°42' E 011°49'0 0.0
2018-Feb-13 14:59N 57°42' E 011°49'0 0.0
2018-Feb-13 14:29N 57°42' E 011°49'0 0.0
2018-Feb-13 13:59N 57°42' E 011°49'0 0.0
2018-Feb-13 13:29N 57°42' E 011°49'0 0.0
2018-Feb-13 12:59N 57°42' E 011°49'0 0.0
2018-Feb-13 12:29N 57°42' E 011°49'0 0.0
2018-Feb-13 11:59N 57°42' E 011°49'0 0.0
2018-Feb-13 11:29N 57°42' E 011°49'0 0.0
2018-Feb-13 10:59N 57°42' E 011°49'0 0.0
2018-Feb-13 10:29N 57°42' E 011°49'0 0.0
2018-Feb-13 09:59N 57°42' E 011°49'0 0.0
2018-Feb-13 09:29N 57°42' E 011°49'0 0.0
2018-Feb-13 08:59N 57°42' E 011°49'0 0.0
2018-Feb-13 08:26N 57°42' E 011°49'0 0.0
2018-Feb-13 07:59N 57°42' E 011°49'0 0.0
2018-Feb-13 07:29N 57°42' E 011°49'0 0.0
2018-Feb-13 06:59N 57°42' E 011°49'0 0.0
2018-Feb-13 06:29N 57°42' E 011°49'0 0.0
2018-Feb-13 05:59N 57°42' E 011°49'0 0.0
2018-Feb-13 05:29N 57°42' E 011°49'0 0.0
2018-Feb-13 04:59N 57°42' E 011°49'0 0.0
2018-Feb-13 04:29N 57°42' E 011°49'0 0.0
2018-Feb-13 03:59N 57°42' E 011°49'0 0.0
2018-Feb-13 03:29N 57°42' E 011°49'0 0.0
2018-Feb-13 02:59N 57°42' E 011°49'0 0.0
2018-Feb-13 02:29N 57°42' E 011°49'0 0.0
2018-Feb-13 01:59N 57°42' E 011°49'0 0.0
2018-Feb-13 01:29N 57°42' E 011°49'0 0.0
2018-Feb-13 00:59N 57°42' E 011°49'0 0.0
2018-Feb-13 00:29N 57°42' E 011°49'0 0.0
2018-Feb-12 23:59N 57°42' E 011°49'0 0.0
2018-Feb-12 23:29N 57°42' E 011°49'0 0.0
2018-Feb-12 22:59N 57°42' E 011°49'0 0.0
2018-Feb-12 22:29N 57°42' E 011°49'0 0.0
2018-Feb-12 21:59N 57°42' E 011°49'0 0.0
2018-Feb-12 21:29N 57°42' E 011°49'0 0.0
2018-Feb-12 20:59N 57°42' E 011°49'0 0.0
2018-Feb-12 20:29N 57°42' E 011°49'0 0.0
2018-Feb-12 19:59N 57°42' E 011°49'0 0.0
2018-Feb-12 19:29N 57°42' E 011°49'0 0.0
2018-Feb-12 18:59N 57°42' E 011°49'0 0.0
2018-Feb-12 18:29N 57°42' E 011°49'0 0.0
2018-Feb-12 17:59N 57°42' E 011°49'0 0.0
2018-Feb-12 17:29N 57°42' E 011°49'0 0.0
2018-Feb-12 16:59N 57°42' E 011°49'0 0.0
2018-Feb-12 16:29N 57°42' E 011°49'0 0.0
2018-Feb-12 15:59N 57°42' E 011°49'0 0.0
2018-Feb-12 15:29N 57°42' E 011°49'0 0.0
2018-Feb-12 14:59N 57°42' E 011°49'0 0.0
2018-Feb-12 14:26N 57°42' E 011°49'0 0.0
2018-Feb-12 13:59N 57°42' E 011°49'0 0.0
2018-Feb-12 13:29N 57°42' E 011°49'0 0.0
2018-Feb-12 12:59N 57°42' E 011°49'0 0.0
2018-Feb-12 12:29N 57°42' E 011°49'0 0.0
2018-Feb-12 11:59N 57°42' E 011°49'0 0.0
2018-Feb-12 11:29N 57°42' E 011°49'0 0.0
2018-Feb-12 10:59N 57°42' E 011°49'0 0.0
2018-Feb-12 10:29N 57°42' E 011°49'0 0.0
2018-Feb-12 09:59N 57°42' E 011°49'0 0.0
2018-Feb-12 09:29N 57°42' E 011°49'0 0.0
2018-Feb-12 08:59N 57°42' E 011°49'0 0.0
2018-Feb-12 08:29N 57°42' E 011°49'0 0.0
2018-Feb-12 07:59N 57°42' E 011°49'0 0.0
2018-Feb-12 07:29N 57°42' E 011°49'0 0.0
2018-Feb-12 06:59N 57°42' E 011°49'0 0.0
2018-Feb-12 06:29N 57°42' E 011°49'0 0.0
2018-Feb-12 05:59N 57°42' E 011°49'0 0.0
2018-Feb-12 05:29N 57°42' E 011°49'0 0.0
2018-Feb-12 04:59N 57°42' E 011°49'0 0.0
2018-Feb-12 04:29N 57°42' E 011°49'0 0.0
2018-Feb-12 03:59N 57°42' E 011°49'0 0.0
2018-Feb-12 03:29N 57°42' E 011°49'0 0.0
2018-Feb-12 02:59N 57°42' E 011°49'0 0.0
2018-Feb-12 02:29N 57°42' E 011°49'0 0.0
2018-Feb-12 01:59N 57°42' E 011°49'0 0.0
2018-Feb-12 01:29N 57°42' E 011°49'0 0.0
2018-Feb-12 00:59N 57°42' E 011°49'0 0.0
2018-Feb-12 00:29N 57°42' E 011°49'0 0.0
2018-Feb-11 23:59N 57°42' E 011°49'  
Track history (hours):
 
Tides and Currents Weather Stations Pressure Air Temp Water Temp Dewpoint Dewpoint Depression Visibility Wind Speed Wind Dir Waves Ship Positions

Geervliet

Last reported at 2018-Feb-21 23:40 UTC. Time now 2018-Feb-24 00:40 UTC.
Position N 49°46' W 003°26'.

Length 86 m; draft 4.9 m.

Type: Cargo ship. MMSI: 246803000.

Date/timePositionNaut miles runAvg speedWind from/ knotsBaromVisibWave heightAir tempDewpointWater temp
2018-Feb-21 23:40N 49°46' W 003°26'2 9.6
2018-Feb-21 23:25N 49°47' W 003°23'4 9.3
2018-Feb-21 23:01N 49°49' W 003°18'5 8.9
2018-Feb-21 22:29N 49°51' W 003°11'5 9.0
2018-Feb-21 21:59N 49°53' W 003°05'4 9.1
2018-Feb-21 21:30N 49°56' W 002°59'5 9.3
2018-Feb-21 21:00N 49°57' W 002°52'5 9.7
2018-Feb-21 20:28N 49°59' W 002°45'510.2
2018-Feb-21 20:00N 50°00' W 002°38'2412.1
2018-Feb-21 18:02N 50°07' W 002°02'213.5
2018-Feb-21 17:54N 50°08' W 001°60'513.7
2018-Feb-21 17:30N 50°09' W 001°52'713.8
2018-Feb-21 17:00N 50°12' W 001°41'713.5
2018-Feb-21 16:30N 50°14' W 001°31'713.1
2018-Feb-21 16:00N 50°15' W 001°21'37 9.7
2018-Feb-21 12:11N 50°26' W 000°26'1 8.1
2018-Feb-21 12:00N 50°27' W 000°24'4 8.2
2018-Feb-21 11:30N 50°28' W 000°18'4 8.6
2018-Feb-21 11:01N 50°29' W 000°11'5 9.2
2018-Feb-21 10:30N 50°31' W 000°04'5 9.7
2018-Feb-21 10:00N 50°32' E 000°03'510.4
2018-Feb-21 09:30N 50°34' E 000°11'510.8
2018-Feb-21 09:00N 50°35' E 000°19'611.6
2018-Feb-21 08:30N 50°37' E 000°28'611.8
2018-Feb-21 08:00N 50°40' E 000°36'612.0
2018-Feb-21 07:30N 50°43' E 000°44'612.0
2018-Feb-21 07:00N 50°46' E 000°51'611.8
2018-Feb-21 06:30N 50°50' E 000°59'611.3
2018-Feb-21 05:56N 50°54' E 001°07'1210.2
2018-Feb-21 04:46N 51°01' E 001°22'2 9.0
2018-Feb-21 04:30N 51°03' E 001°25'4 8.9
2018-Feb-21 04:00N 51°06' E 001°30'4 8.7
2018-Feb-21 03:30N 51°08' E 001°35'4 8.8
2018-Feb-21 03:00N 51°11' E 001°41'5 9.1
2018-Feb-21 02:30N 51°14' E 001°46'5 9.9
2018-Feb-21 02:00N 51°18' E 001°51'510.6
2018-Feb-21 01:30N 51°23' E 001°55'611.5
2018-Feb-21 01:00N 51°27' E 002°01'612.4
2018-Feb-21 00:30N 51°32' E 002°08'612.6
2018-Feb-21 00:00N 51°36' E 002°15'612.8
2018-Feb-20 23:30N 51°41' E 002°21'4611.0
2018-Feb-20 19:16N 52°03' E 003°28'310.5
2018-Feb-20 19:00N 52°03' E 003°33'510.2
2018-Feb-20 18:29N 52°03' E 003°41'510.1
2018-Feb-20 18:00N 52°02' E 003°49'4 8.7
2018-Feb-20 17:30N 52°02' E 003°56'510.3
2018-Feb-20 17:00N 51°59' E 004°03'5 9.3
2018-Feb-20 16:30N 51°57' E 004°10'4 7.9
2018-Feb-20 16:00N 51°55' E 004°15'4 8.6
2018-Feb-20 15:30N 51°54' E 004°22'4 7.1
2018-Feb-20 15:00N 51°54' E 004°27'0 0.0
2018-Feb-20 14:30N 51°54' E 004°27'0 0.0
2018-Feb-20 14:00N 51°54' E 004°27'0 0.0
2018-Feb-20 13:30N 51°54' E 004°27'0 0.0
2018-Feb-20 13:00N 51°54' E 004°27'0 0.0
2018-Feb-20 12:30N 51°54' E 004°27'0 0.0
2018-Feb-20 12:00N 51°54' E 004°27'0 0.0
2018-Feb-20 11:30N 51°54' E 004°27'0 0.0
2018-Feb-20 11:00N 51°54' E 004°27'0 0.0
2018-Feb-20 10:30N 51°54' E 004°27'0 0.0
2018-Feb-20 10:00N 51°54' E 004°27'0 0.0
2018-Feb-20 09:30N 51°54' E 004°27'0 0.0
2018-Feb-20 09:00N 51°54' E 004°27'0 0.0
2018-Feb-20 08:30N 51°54' E 004°27'0 0.1
2018-Feb-20 08:00N 51°54' E 004°27'1 1.1
2018-Feb-20 07:30N 51°54' E 004°26'1 1.4
2018-Feb-20 06:58N 51°54' E 004°27'0 0.0
2018-Feb-20 06:28N 51°54' E 004°27'0 0.0
2018-Feb-20 05:58N 51°54' E 004°27'0 0.0
2018-Feb-20 05:28N 51°54' E 004°27'0 0.0
2018-Feb-20 04:58N 51°54' E 004°27'0 0.0
2018-Feb-20 04:28N 51°54' E 004°27'0 0.0
2018-Feb-20 03:58N 51°54' E 004°27'0 0.0
2018-Feb-20 03:28N 51°54' E 004°27'0 0.0
2018-Feb-20 02:58N 51°54' E 004°27'0 0.0
2018-Feb-20 02:28N 51°54' E 004°27'0 0.0
2018-Feb-20 01:58N 51°54' E 004°27'0 0.0
2018-Feb-20 01:28N 51°54' E 004°27'0 0.0
2018-Feb-20 00:58N 51°54' E 004°27'0 0.0
2018-Feb-20 00:28N 51°54' E 004°27'0 0.0
2018-Feb-19 23:58N 51°54' E 004°27'0 0.0
2018-Feb-19 23:28N 51°54' E 004°27'0 0.0
2018-Feb-19 22:58N 51°54' E 004°27'0 0.0
2018-Feb-19 22:28N 51°54' E 004°27'0 0.0
2018-Feb-19 21:58N 51°54' E 004°27'0 0.0
2018-Feb-19 21:28N 51°54' E 004°27'0 0.0
2018-Feb-19 20:58N 51°54' E 004°27'0 0.0
2018-Feb-19 20:28N 51°54' E 004°27'0 0.0
2018-Feb-19 19:58N 51°54' E 004°27'0 0.0
2018-Feb-19 19:28N 51°54' E 004°27'0 0.0
2018-Feb-19 18:58N 51°54' E 004°27'0 0.0
2018-Feb-19 18:28N 51°54' E 004°27'0 0.0
2018-Feb-19 17:58N 51°54' E 004°27'0 0.0
2018-Feb-19 17:28N 51°54' E 004°27'0 0.0
2018-Feb-19 16:58N 51°54' E 004°27'0 0.0
2018-Feb-19 16:28N 51°54' E 004°27'0 0.0
2018-Feb-19 15:58N 51°54' E 004°27'0 0.0
2018-Feb-19 15:28N 51°54' E 004°27'0 0.0
2018-Feb-19 14:58N 51°54' E 004°27'0 0.0
2018-Feb-19 14:28N 51°54' E 004°27'0 0.0
2018-Feb-19 13:58N 51°54' E 004°27'0 0.0
2018-Feb-19 13:28N 51°54' E 004°27'0 0.0
2018-Feb-19 12:58N 51°54' E 004°27'0 0.0
2018-Feb-19 12:28N 51°54' E 004°27'0 0.0
2018-Feb-19 11:58N 51°54' E 004°27'0 0.0
2018-Feb-19 11:28N 51°54' E 004°27'0 0.0
2018-Feb-19 10:58N 51°54' E 004°27'0 0.0
2018-Feb-19 10:25N 51°54' E 004°27'0 0.0
2018-Feb-19 09:55N 51°54' E 004°27'0 0.0
2018-Feb-19 09:28N 51°54' E 004°27'0 0.0
2018-Feb-19 08:55N 51°54' E 004°27'0 0.0
2018-Feb-19 08:28N 51°54' E 004°27'0 0.0
2018-Feb-19 07:58N 51°54' E 004°27'0 0.0
2018-Feb-19 07:28N 51°54' E 004°27'0 0.0
2018-Feb-19 06:58N 51°54' E 004°27'0 0.0
2018-Feb-19 06:28N 51°54' E 004°27'0 0.0
2018-Feb-19 05:58N 51°54' E 004°27'0 0.0
2018-Feb-19 05:28N 51°54' E 004°27'0 0.0
2018-Feb-19 04:58N 51°54' E 004°27'0 0.0
2018-Feb-19 04:28N 51°54' E 004°27'0 0.0
2018-Feb-19 03:58N 51°54' E 004°27'0 0.0
2018-Feb-19 03:28N 51°54' E 004°27'0 0.0
2018-Feb-19 02:58N 51°54' E 004°27'0 0.0
2018-Feb-19 02:28N 51°54' E 004°27'0 0.0
2018-Feb-19 01:58N 51°54' E 004°27'0 0.0
2018-Feb-19 01:28N 51°54' E 004°27'0 0.0
2018-Feb-19 00:58N 51°54' E 004°27'0 0.0
2018-Feb-19 00:28N 51°54' E 004°27'0 0.0
2018-Feb-18 23:58N 51°54' E 004°27'0 0.0
2018-Feb-18 23:28N 51°54' E 004°27'0 0.0
2018-Feb-18 22:58N 51°54' E 004°27'0 0.0
2018-Feb-18 22:28N 51°54' E 004°27'0 0.0
2018-Feb-18 21:58N 51°54' E 004°27'0 0.0
2018-Feb-18 21:28N 51°54' E 004°27'0 0.0
2018-Feb-18 20:58N 51°54' E 004°27'0 0.0
2018-Feb-18 20:28N 51°54' E 004°27'0 0.0
2018-Feb-18 19:58N 51°54' E 004°27'0 0.0
2018-Feb-18 19:28N 51°54' E 004°27'0 0.0
2018-Feb-18 18:58N 51°54' E 004°27'0 0.0
2018-Feb-18 18:28N 51°54' E 004°27'0 0.0
2018-Feb-18 17:58N 51°54' E 004°27'0 0.0
2018-Feb-18 17:28N 51°54' E 004°27'0 0.0
2018-Feb-18 16:58N 51°54' E 004°27'0 0.0
2018-Feb-18 16:28N 51°54' E 004°27'0 0.0
2018-Feb-18 15:58N 51°54' E 004°27'0 0.0
2018-Feb-18 15:28N 51°54' E 004°27'0 0.0
2018-Feb-18 14:52N 51°54' E 004°27'0 0.0
2018-Feb-18 14:28N 51°54' E 004°27'0 0.0
2018-Feb-18 13:58N 51°54' E 004°27'0 0.0
2018-Feb-18 13:28N 51°54' E 004°27'0 0.0
2018-Feb-18 12:58N 51°54' E 004°27'0 0.0
2018-Feb-18 12:28N 51°54' E 004°27'0 0.0
2018-Feb-18 11:58N 51°54' E 004°27'0 0.0
2018-Feb-18 11:28N 51°54' E 004°27'0 0.0
2018-Feb-18 10:58N 51°54' E 004°27'0 0.0
2018-Feb-18 10:28N 51°54' E 004°27'0 0.0
2018-Feb-18 09:58N 51°54' E 004°27'0 0.0
2018-Feb-18 09:28N 51°54' E 004°27'0 0.0
2018-Feb-18 08:58N 51°54' E 004°27'0 0.0
2018-Feb-18 08:28N 51°54' E 004°27'0 0.0
2018-Feb-18 07:58N 51°54' E 004°27'0 0.0
2018-Feb-18 07:28N 51°54' E 004°27'0 0.0
2018-Feb-18 06:58N 51°54' E 004°27'0 0.0
2018-Feb-18 06:28N 51°54' E 004°27'0 0.0
2018-Feb-18 05:58N 51°54' E 004°27'0 0.0
2018-Feb-18 05:28N 51°54' E 004°27'0 0.0
2018-Feb-18 04:58N 51°54' E 004°27'0 0.0
2018-Feb-18 04:28N 51°54' E 004°27'0 0.0
2018-Feb-18 03:58N 51°54' E 004°27'0 0.0
2018-Feb-18 03:28N 51°54' E 004°27'0 0.0
2018-Feb-18 02:58N 51°54' E 004°27'0 0.0
2018-Feb-18 02:28N 51°54' E 004°27'0 0.0
2018-Feb-18 01:58N 51°54' E 004°27'0 0.0
2018-Feb-18 01:28N 51°54' E 004°27'0 0.0
2018-Feb-18 00:58N 51°54' E 004°27'0 0.0
2018-Feb-18 00:28N 51°54' E 004°27'0 0.0
2018-Feb-17 23:58N 51°54' E 004°27'0 0.0
2018-Feb-17 23:28N 51°54' E 004°27'0 0.0
2018-Feb-17 22:58N 51°54' E 004°27'0 0.0
2018-Feb-17 22:28N 51°54' E 004°27'0 0.0
2018-Feb-17 21:58N 51°54' E 004°27'0 0.0
2018-Feb-17 21:28N 51°54' E 004°27'0 0.0
2018-Feb-17 20:58N 51°54' E 004°27'0 0.0
2018-Feb-17 20:28N 51°54' E 004°27'0 0.0
2018-Feb-17 19:58N 51°54' E 004°27'0 0.0
2018-Feb-17 19:28N 51°54' E 004°27'0 0.0
2018-Feb-17 18:58N 51°54' E 004°27'0 0.0
2018-Feb-17 18:28N 51°54' E 004°27'0 0.0
2018-Feb-17 17:58N 51°54' E 004°27'0 0.0
2018-Feb-17 17:28N 51°54' E 004°27'0 0.0
2018-Feb-17 16:58N 51°54' E 004°27'0 0.0
2018-Feb-17 16:28N 51°54' E 004°27'0 0.0
2018-Feb-17 15:58N 51°54' E 004°27'0 0.0
2018-Feb-17 15:28N 51°54' E 004°27'0 0.0
2018-Feb-17 14:58N 51°54' E 004°27'0 0.0
2018-Feb-17 14:28N 51°54' E 004°27'0 0.0
2018-Feb-17 13:58N 51°54' E 004°27'0 0.0
2018-Feb-17 13:28N 51°54' E 004°27'0 0.0
2018-Feb-17 12:58N 51°54' E 004°27'0 0.0
2018-Feb-17 12:28N 51°54' E 004°27'0 0.0
2018-Feb-17 11:58N 51°54' E 004°27'0 0.0
2018-Feb-17 11:28N 51°54' E 004°27'0 0.0
2018-Feb-17 10:58N 51°54' E 004°27'0 0.0
2018-Feb-17 10:28N 51°54' E 004°27'0 0.0
2018-Feb-17 09:58N 51°54' E 004°27'0 0.0
2018-Feb-17 09:28N 51°54' E 004°27'0 0.0
2018-Feb-17 08:58N 51°54' E 004°27'0 0.0
2018-Feb-17 08:28N 51°54' E 004°27'0 0.0
2018-Feb-17 07:58N 51°54' E 004°27'0 0.0
2018-Feb-17 07:28N 51°54' E 004°27'0 0.0
2018-Feb-17 06:58N 51°54' E 004°27'0 0.0
2018-Feb-17 06:28N 51°54' E 004°27'0 0.0
2018-Feb-17 05:58N 51°54' E 004°27'0 0.0
2018-Feb-17 05:28N 51°54' E 004°27'0 0.0
2018-Feb-17 04:58N 51°54' E 004°27'0 0.0
2018-Feb-17 04:28N 51°54' E 004°27'0 0.0
2018-Feb-17 03:58N 51°54' E 004°27'0 0.0
2018-Feb-17 03:28N 51°54' E 004°27'0 0.0
2018-Feb-17 02:58N 51°54' E 004°27'0 0.0
2018-Feb-17 02:28N 51°54' E 004°27'0 0.0
2018-Feb-17 01:58N 51°54' E 004°27'0 0.0
2018-Feb-17 01:28N 51°54' E 004°27'0 0.0
2018-Feb-17 00:58N 51°54' E 004°27'0 0.0
2018-Feb-17 00:28N 51°54' E 004°27'0 0.0
2018-Feb-16 23:58N 51°54' E 004°27'0 0.0
2018-Feb-16 23:28N 51°54' E 004°27'0 0.0
2018-Feb-16 22:58N 51°54' E 004°27'0 0.0
2018-Feb-16 22:28N 51°54' E 004°27'0 0.0
2018-Feb-16 21:58N 51°54' E 004°27'0 0.0
2018-Feb-16 21:28N 51°54' E 004°27'0 0.0
2018-Feb-16 20:58N 51°54' E 004°27'0 0.0
2018-Feb-16 20:28N 51°54' E 004°27'0 0.0
2018-Feb-16 19:58N 51°54' E 004°27'0 0.0
2018-Feb-16 19:28N 51°54' E 004°27'0 0.2
2018-Feb-16 19:00N 51°54' E 004°27'4 8.4
2018-Feb-16 18:31N 51°54' E 004°21'4 8.4
2018-Feb-16 18:00N 51°55' E 004°14'4 8.7
2018-Feb-16 17:30N 51°58' E 004°09'5 9.6
2018-Feb-16 17:00N 51°60' E 004°01'611.4
2018-Feb-16 16:30N 51°60' E 003°52'4 8.7
2018-Feb-16 16:00N 52°03' E 003°47'3 6.6
2018-Feb-16 15:30N 52°06' E 003°46'3 6.2
2018-Feb-16 15:00N 52°09' E 003°47'3 6.1
2018-Feb-16 14:31N 52°12' E 003°47'3 5.7
2018-Feb-16 14:00N 52°15' E 003°47'3 5.9
2018-Feb-16 13:30N 52°18' E 003°48'4 8.9
2018-Feb-16 13:00N 52°22' E 003°49'510.4
2018-Feb-16 12:30N 52°27' E 003°50'710.7
2018-Feb-16 11:50N 52°35' E 003°52'3210.4
2018-Feb-16 08:47N 53°04' E 004°13'3 9.7
2018-Feb-16 08:30N 53°06' E 004°16'5 9.5
2018-Feb-16 07:59N 53°09' E 004°22'4 9.1
2018-Feb-16 07:30N 53°13' E 004°26'5 9.1
2018-Feb-16 06:58N 53°18' E 004°29'4 8.9
2018-Feb-16 06:29N 53°22' E 004°31'4 8.6
2018-Feb-16 05:59N 53°26' E 004°33'4 8.3
2018-Feb-16 05:29N 53°30' E 004°35'4 8.1
2018-Feb-16 05:00N 53°33' E 004°38'4 8.1
2018-Feb-16 04:30N 53°37' E 004°40'4 8.9
2018-Feb-16 04:00N 53°41' E 004°43'5 9.3
2018-Feb-16 03:30N 53°45' E 004°46'113 7.7
2018-Feb-15 12:45N 55°23' E 006°24'2 5.2
2018-Feb-15 12:21N 55°25' E 006°26'6 5.0
2018-Feb-15 11:11N 55°30' E 006°32'1 4.9
2018-Feb-15 11:00N 55°31' E 006°33'173 5.8
2018-Feb-14 05:01N 57°41' E 010°00'6 9.2
2018-Feb-14 04:21N 57°43' E 010°11'3 9.6
2018-Feb-14 04:00N 57°44' E 010°17'5 9.3
2018-Feb-14 03:30N 57°46' E 010°25'5 9.1
2018-Feb-14 03:00N 57°47' E 010°33'4 8.7
2018-Feb-14 02:30N 57°47' E 010°41'4 8.7
2018-Feb-14 02:00N 57°44' E 010°47'611.3
2018-Feb-14 01:30N 57°38' E 010°46'611.2
2018-Feb-14 01:00N 57°33' E 010°44'510.8
2018-Feb-14 00:30N 57°27' E 010°42'4 9.0
2018-Feb-14 00:00N 57°25' E 010°35'2 2.7
2018-Feb-13 23:22N 57°26' E 010°33'0 0.2
2018-Feb-13 22:48N 57°26' E 010°33'1 2.7
2018-Feb-13 22:29N 57°26' E 010°34'4 8.0
2018-Feb-13 22:00N 57°26' E 010°41'510.0
2018-Feb-13 21:31N 57°27' E 010°50'510.2
2018-Feb-13 21:00N 57°30' E 010°58'510.6
2018-Feb-13 20:30N 57°31' E 011°08'510.7
2018-Feb-13 20:00N 57°32' E 011°17'510.6
2018-Feb-13 19:31N 57°34' E 011°27'510.3
2018-Feb-13 19:00N 57°36' E 011°36'5 9.5
2018-Feb-13 18:30N 57°39' E 011°43'4 8.5
2018-Feb-13 18:01N 57°41' E 011°50'1 1.2
2018-Feb-13 17:29N 57°42' E 011°49'0 0.0
2018-Feb-13 16:59N 57°42' E 011°49'0 0.0
2018-Feb-13 16:29N 57°42' E 011°49'0 0.0
2018-Feb-13 15:59N 57°42' E 011°49'0 0.0
2018-Feb-13 15:29N 57°42' E 011°49'0 0.0
2018-Feb-13 14:59N 57°42' E 011°49'0 0.0
2018-Feb-13 14:29N 57°42' E 011°49'0 0.0
2018-Feb-13 13:59N 57°42' E 011°49'0 0.0
2018-Feb-13 13:29N 57°42' E 011°49'0 0.0
2018-Feb-13 12:59N 57°42' E 011°49'0 0.0
2018-Feb-13 12:29N 57°42' E 011°49'0 0.0
2018-Feb-13 11:59N 57°42' E 011°49'0 0.0
2018-Feb-13 11:29N 57°42' E 011°49'0 0.0
2018-Feb-13 10:59N 57°42' E 011°49'0 0.0
2018-Feb-13 10:29N 57°42' E 011°49'0 0.0
2018-Feb-13 09:59N 57°42' E 011°49'0 0.0
2018-Feb-13 09:29N 57°42' E 011°49'0 0.0
2018-Feb-13 08:59N 57°42' E 011°49'0 0.0
2018-Feb-13 08:26N 57°42' E 011°49'0 0.0
2018-Feb-13 07:59N 57°42' E 011°49'0 0.0
2018-Feb-13 07:29N 57°42' E 011°49'0 0.0
2018-Feb-13 06:59N 57°42' E 011°49'0 0.0
2018-Feb-13 06:29N 57°42' E 011°49'0 0.0
2018-Feb-13 05:59N 57°42' E 011°49'0 0.0
2018-Feb-13 05:29N 57°42' E 011°49'0 0.0
2018-Feb-13 04:59N 57°42' E 011°49'0 0.0
2018-Feb-13 04:29N 57°42' E 011°49'0 0.0
2018-Feb-13 03:59N 57°42' E 011°49'0 0.0
2018-Feb-13 03:29N 57°42' E 011°49'0 0.0
2018-Feb-13 02:59N 57°42' E 011°49'0 0.0
2018-Feb-13 02:29N 57°42' E 011°49'0 0.0
2018-Feb-13 01:59N 57°42' E 011°49'0 0.0
2018-Feb-13 01:29N 57°42' E 011°49'0 0.0
2018-Feb-13 00:59N 57°42' E 011°49'0 0.0
2018-Feb-13 00:29N 57°42' E 011°49'0 0.0
2018-Feb-12 23:59N 57°42' E 011°49'0 0.0
2018-Feb-12 23:29N 57°42' E 011°49'0 0.0
2018-Feb-12 22:59N 57°42' E 011°49'0 0.0
2018-Feb-12 22:29N 57°42' E 011°49'0 0.0
2018-Feb-12 21:59N 57°42' E 011°49'0 0.0
2018-Feb-12 21:29N 57°42' E 011°49'0 0.0
2018-Feb-12 20:59N 57°42' E 011°49'0 0.0
2018-Feb-12 20:29N 57°42' E 011°49'0 0.0
2018-Feb-12 19:59N 57°42' E 011°49'0 0.0
2018-Feb-12 19:29N 57°42' E 011°49'0 0.0
2018-Feb-12 18:59N 57°42' E 011°49'0 0.0
2018-Feb-12 18:29N 57°42' E 011°49'0 0.0
2018-Feb-12 17:59N 57°42' E 011°49'0 0.0
2018-Feb-12 17:29N 57°42' E 011°49'0 0.0
2018-Feb-12 16:59N 57°42' E 011°49'0 0.0
2018-Feb-12 16:29N 57°42' E 011°49'0 0.0
2018-Feb-12 15:59N 57°42' E 011°49'0 0.0
2018-Feb-12 15:29N 57°42' E 011°49'0 0.0
2018-Feb-12 14:59N 57°42' E 011°49'0 0.0
2018-Feb-12 14:26N 57°42' E 011°49'0 0.0
2018-Feb-12 13:59N 57°42' E 011°49'0 0.0
2018-Feb-12 13:29N 57°42' E 011°49'0 0.0
2018-Feb-12 12:59N 57°42' E 011°49'0 0.0
2018-Feb-12 12:29N 57°42' E 011°49'0 0.0
2018-Feb-12 11:59N 57°42' E 011°49'0 0.0
2018-Feb-12 11:29N 57°42' E 011°49'0 0.0
2018-Feb-12 10:59N 57°42' E 011°49'0 0.0
2018-Feb-12 10:29N 57°42' E 011°49'0 0.0
2018-Feb-12 09:59N 57°42' E 011°49'0 0.0
2018-Feb-12 09:29N 57°42' E 011°49'0 0.0
2018-Feb-12 08:59N 57°42' E 011°49'0 0.0
2018-Feb-12 08:29N 57°42' E 011°49'0 0.0
2018-Feb-12 07:59N 57°42' E 011°49'0 0.0
2018-Feb-12 07:29N 57°42' E 011°49'0 0.0
2018-Feb-12 06:59N 57°42' E 011°49'0 0.0
2018-Feb-12 06:29N 57°42' E 011°49'0 0.0
2018-Feb-12 05:59N 57°42' E 011°49'0 0.0
2018-Feb-12 05:29N 57°42' E 011°49'0 0.0
2018-Feb-12 04:59N 57°42' E 011°49'0 0.0
2018-Feb-12 04:29N 57°42' E 011°49'0 0.0
2018-Feb-12 03:59N 57°42' E 011°49'0 0.0
2018-Feb-12 03:29N 57°42' E 011°49'0 0.0
2018-Feb-12 02:59N 57°42' E 011°49'0 0.0
2018-Feb-12 02:29N 57°42' E 011°49'0 0.0
2018-Feb-12 01:59N 57°42' E 011°49'0 0.0
2018-Feb-12 01:29N 57°42' E 011°49'0 0.0
2018-Feb-12 00:59N 57°42' E 011°49'0 0.0
2018-Feb-12 00:29N 57°42' E 011°49'0 0.0
2018-Feb-11 23:59N 57°42' E 011°49'  

Dump ship's entire track history